createdAt,value
2018-04-27T00:02:09.840Z,9.40
2018-04-27T00:04:37.297Z,9.40
2018-04-27T00:07:04.892Z,9.30
2018-04-27T00:09:32.331Z,9.40
2018-04-27T00:11:59.770Z,9.30
2018-04-27T00:14:27.223Z,9.10
2018-04-27T00:16:55.579Z,9.10
2018-04-27T00:19:23.799Z,9.10
2018-04-27T00:21:51.225Z,9.00
2018-04-27T00:24:18.666Z,9.20
2018-04-27T00:26:46.866Z,9.10
2018-04-27T00:29:14.314Z,9.10
2018-04-27T00:31:42.511Z,9.00
2018-04-27T00:34:09.949Z,9.00
2018-04-27T00:36:37.372Z,9.00
2018-04-27T00:39:05.543Z,8.90
2018-04-27T00:41:32.963Z,8.90
2018-04-27T00:44:00.407Z,9.00
2018-04-27T00:46:27.831Z,9.00
2018-04-27T00:48:56.052Z,8.80
2018-04-27T00:51:23.487Z,8.80
2018-04-27T00:53:50.948Z,8.70
2018-04-27T00:56:18.398Z,8.70
2018-04-27T00:58:46.587Z,8.80
2018-04-27T01:01:15.359Z,8.80
2018-04-27T01:03:42.795Z,8.80
2018-04-27T01:06:11.820Z,8.80
2018-04-27T01:08:39.259Z,8.90
2018-04-27T01:11:06.706Z,8.80
2018-04-27T01:13:34.899Z,8.60
2018-04-27T01:16:02.339Z,8.60
2018-04-27T01:18:30.537Z,8.50
2018-04-27T01:20:57.967Z,8.50
2018-04-27T01:23:26.162Z,8.50
2018-04-27T01:25:53.602Z,8.50
2018-04-27T01:28:21.801Z,8.50
2018-04-27T01:30:49.246Z,8.50
2018-04-27T01:33:16.667Z,8.50
2018-04-27T01:35:44.126Z,8.30
2018-04-27T01:38:11.570Z,8.20
2018-04-27T01:40:39.008Z,8.30
2018-04-27T01:43:06.440Z,8.50
2018-04-27T01:45:35.454Z,8.40
2018-04-27T01:48:02.868Z,8.40
2018-04-27T01:50:31.071Z,8.40
2018-04-27T01:52:58.506Z,8.30
2018-04-27T01:55:25.934Z,8.40
2018-04-27T01:57:53.371Z,8.40
2018-04-27T02:00:20.806Z,8.40
2018-04-27T02:02:48.235Z,8.40
2018-04-27T02:05:15.708Z,8.40
2018-04-27T02:07:43.137Z,8.40
2018-04-27T02:10:11.332Z,8.30
2018-04-27T02:12:38.766Z,8.30
2018-04-27T02:15:06.968Z,8.20
2018-04-27T02:17:34.403Z,8.20
2018-04-27T02:20:02.638Z,8.10
2018-04-27T02:22:30.070Z,8.00
2018-04-27T02:24:57.526Z,8.30
2018-04-27T02:27:24.964Z,8.30
2018-04-27T02:29:53.456Z,8.10
2018-04-27T02:32:20.892Z,8.10
2018-04-27T02:34:49.091Z,8.30
2018-04-27T02:37:16.526Z,8.30
2018-04-27T02:39:44.716Z,8.20
2018-04-27T02:42:12.148Z,8.20
2018-04-27T02:44:40.353Z,8.20
2018-04-27T02:47:07.780Z,8.20
2018-04-27T02:49:35.988Z,8.30
2018-04-27T02:52:03.429Z,8.30
2018-04-27T02:54:30.869Z,8.30
2018-04-27T02:56:59.084Z,8.10
2018-04-27T02:59:26.518Z,8.00
2018-04-27T03:01:53.947Z,8.00
2018-04-27T03:04:22.163Z,7.80
2018-04-27T03:06:49.589Z,7.80
2018-04-27T03:09:17.803Z,8.10
2018-04-27T03:11:45.252Z,8.10
2018-04-27T03:14:12.679Z,8.20
2018-04-27T03:16:40.882Z,8.10
2018-04-27T03:19:08.323Z,8.10
2018-04-27T03:21:35.775Z,7.80
2018-04-27T03:24:04.015Z,7.40
2018-04-27T03:26:31.419Z,7.30
2018-04-27T03:28:58.839Z,7.40
2018-04-27T03:31:27.056Z,7.80
2018-04-27T03:33:54.485Z,7.80
2018-04-27T03:36:22.712Z,8.00
2018-04-27T03:38:50.851Z,7.90
2018-04-27T03:41:18.295Z,8.00
2018-04-27T03:43:46.488Z,7.90
2018-04-27T03:46:13.924Z,7.90
2018-04-27T03:48:42.131Z,7.80
2018-04-27T03:51:09.599Z,7.80
2018-04-27T03:53:37.027Z,7.80
2018-04-27T03:56:04.487Z,7.90
2018-04-27T03:58:31.927Z,7.90
2018-04-27T04:01:12.780Z,7.90
2018-04-27T04:03:52.050Z,7.90
2018-04-27T04:06:19.499Z,8.00
2018-04-27T04:08:46.935Z,7.60
2018-04-27T04:11:15.147Z,7.30
2018-04-27T04:13:42.629Z,7.30
2018-04-27T04:16:10.031Z,7.70
2018-04-27T04:18:38.230Z,7.70
2018-04-27T04:21:05.680Z,7.70
2018-04-27T04:23:33.138Z,7.60
2018-04-27T04:26:00.577Z,7.50
2018-04-27T04:28:28.794Z,7.50
2018-04-27T04:30:56.222Z,7.50
2018-04-27T04:33:23.679Z,7.60
2018-04-27T04:35:51.115Z,7.40
2018-04-27T04:38:18.590Z,7.60
2018-04-27T04:40:45.999Z,7.60
2018-04-27T04:43:13.770Z,7.60
2018-04-27T04:45:41.206Z,7.70
2018-04-27T04:48:08.657Z,7.70
2018-04-27T04:50:36.107Z,7.80
2018-04-27T04:53:03.539Z,7.80
2018-04-27T04:55:30.996Z,8.00
2018-04-27T04:57:58.455Z,7.90
2018-04-27T05:00:38.851Z,8.00
2018-04-27T05:03:06.288Z,8.10
2018-04-27T05:05:33.729Z,7.90
2018-04-27T05:08:01.175Z,8.00
2018-04-27T05:10:29.441Z,8.00
2018-04-27T05:12:56.819Z,8.00
2018-04-27T05:15:25.009Z,8.10
2018-04-27T05:17:52.459Z,8.10
2018-04-27T05:20:19.416Z,8.10
2018-04-27T05:22:46.863Z,7.90
2018-04-27T05:25:14.293Z,7.90
2018-04-27T05:27:42.483Z,8.00
2018-04-27T05:30:09.914Z,7.90
2018-04-27T05:32:37.351Z,8.10
2018-04-27T05:35:04.869Z,8.20
2018-04-27T05:37:32.324Z,8.30
2018-04-27T05:39:59.777Z,8.50
2018-04-27T05:42:27.207Z,8.50
2018-04-27T05:44:55.399Z,8.70
2018-04-27T05:47:22.850Z,8.70
2018-04-27T05:49:51.052Z,8.80
2018-04-27T05:52:18.502Z,8.70
2018-04-27T05:54:45.929Z,8.80
2018-04-27T05:57:14.124Z,9.00
2018-04-27T05:59:41.576Z,9.00
2018-04-27T06:02:09.791Z,9.20
2018-04-27T06:04:37.242Z,9.20
2018-04-27T06:07:04.652Z,9.30
2018-04-27T06:09:32.865Z,9.60
2018-04-27T06:12:00.290Z,9.60
2018-04-27T06:14:28.482Z,9.80
2018-04-27T06:16:55.911Z,9.80
2018-04-27T06:19:25.138Z,10.00
2018-04-27T06:21:52.587Z,10.00
2018-04-27T06:24:20.083Z,10.10
2018-04-27T06:26:47.523Z,10.20
2018-04-27T06:29:14.969Z,10.40
2018-04-27T06:31:42.480Z,10.40
2018-04-27T06:34:10.641Z,10.30
2018-04-27T06:36:38.082Z,10.30
2018-04-27T06:39:05.526Z,10.40
2018-04-27T06:41:32.968Z,10.50
2018-04-27T06:44:00.435Z,10.80
2018-04-27T06:46:27.872Z,10.80
2018-04-27T06:48:56.102Z,11.20
2018-04-27T06:51:23.555Z,11.20
2018-04-27T06:53:51.019Z,11.40
2018-04-27T06:56:18.458Z,11.40
2018-04-27T06:58:45.890Z,11.30
2018-04-27T07:01:13.344Z,11.20
2018-04-27T07:03:40.798Z,11.40
2018-04-27T07:06:08.251Z,11.50
2018-04-27T07:08:35.686Z,11.60
2018-04-27T07:11:03.880Z,11.80
2018-04-27T07:13:31.338Z,11.70
2018-04-27T07:15:58.784Z,11.80
2018-04-27T07:18:27.014Z,12.10
2018-04-27T07:20:54.462Z,12.10
2018-04-27T07:23:21.954Z,12.20
2018-04-27T07:25:49.389Z,12.20
2018-04-27T07:28:16.810Z,12.30
2018-04-27T07:30:44.264Z,12.30
2018-04-27T07:33:11.703Z,12.30
2018-04-27T07:35:39.925Z,12.60
2018-04-27T07:38:07.361Z,12.60
2018-04-27T07:40:34.793Z,12.70
2018-04-27T07:43:03.002Z,12.80
2018-04-27T07:45:30.455Z,12.80
2018-04-27T07:47:57.904Z,13.00
2018-04-27T07:50:25.342Z,13.20
2018-04-27T07:52:53.558Z,13.20
2018-04-27T07:55:21.008Z,13.10
2018-04-27T07:57:48.471Z,13.10
2018-04-27T08:00:15.939Z,13.20
2018-04-27T08:02:43.388Z,13.30
2018-04-27T08:05:11.032Z,13.30
2018-04-27T08:07:38.475Z,13.40
2018-04-27T08:10:05.914Z,13.50
2018-04-27T08:12:34.130Z,13.40
2018-04-27T08:15:01.594Z,13.40
2018-04-27T08:17:29.018Z,13.60
2018-04-27T08:19:57.226Z,13.70
2018-04-27T08:22:24.997Z,13.70
2018-04-27T08:24:52.452Z,13.70
2018-04-27T08:27:19.883Z,13.80
2018-04-27T08:29:47.335Z,13.90
2018-04-27T08:32:14.767Z,14.10
2018-04-27T08:34:43.030Z,14.20
2018-04-27T08:37:10.471Z,14.20
2018-04-27T08:39:37.912Z,14.20
2018-04-27T08:42:05.354Z,14.30
2018-04-27T08:44:33.703Z,14.30
2018-04-27T08:47:01.916Z,14.50
2018-04-27T08:49:29.381Z,14.50
2018-04-27T08:51:56.819Z,14.40
2018-04-27T08:54:24.255Z,14.40
2018-04-27T08:56:51.707Z,14.60
2018-04-27T08:59:19.930Z,14.70
2018-04-27T09:01:47.379Z,14.70
2018-04-27T09:04:14.845Z,14.70
2018-04-27T09:06:42.280Z,14.80
2018-04-27T09:09:09.718Z,14.90
2018-04-27T09:11:37.943Z,15.10
2018-04-27T09:14:05.380Z,15.10
2018-04-27T09:16:32.819Z,15.20
2018-04-27T09:19:00.251Z,15.20
2018-04-27T09:21:28.460Z,15.20
2018-04-27T09:23:55.915Z,15.20
2018-04-27T09:26:23.368Z,15.10
2018-04-27T09:28:50.795Z,15.30
2018-04-27T09:31:19.053Z,15.40
2018-04-27T09:33:46.591Z,15.40
2018-04-27T09:36:14.055Z,15.50
2018-04-27T09:38:41.492Z,15.60
2018-04-27T09:41:09.024Z,15.50
2018-04-27T09:43:36.423Z,15.50
2018-04-27T09:46:03.901Z,15.60
2018-04-27T09:48:31.339Z,15.70
2018-04-27T09:50:58.784Z,15.80
2018-04-27T09:53:26.231Z,15.80
2018-04-27T09:55:53.688Z,15.80
2018-04-27T09:58:21.135Z,15.90
2018-04-27T10:00:48.578Z,15.90
2018-04-27T10:03:16.012Z,16.00
2018-04-27T10:05:43.470Z,16.20
2018-04-27T10:08:10.906Z,16.30
2018-04-27T10:10:38.416Z,16.30
2018-04-27T10:13:05.868Z,16.20
2018-04-27T10:15:33.307Z,16.30
2018-04-27T10:18:01.499Z,16.50
2018-04-27T10:20:28.966Z,16.50
2018-04-27T10:22:56.383Z,16.60
2018-04-27T10:25:24.596Z,16.80
2018-04-27T10:27:52.083Z,16.80
2018-04-27T10:30:19.523Z,16.80
2018-04-27T10:32:46.968Z,16.80
2018-04-27T10:35:14.452Z,16.90
2018-04-27T10:37:41.887Z,16.80
2018-04-27T10:40:09.317Z,17.00
2018-04-27T10:42:37.518Z,16.80
2018-04-27T10:45:04.960Z,16.80
2018-04-27T10:47:32.407Z,16.90
2018-04-27T10:50:00.601Z,17.00
2018-04-27T10:52:28.057Z,17.00
2018-04-27T10:54:55.490Z,17.00
2018-04-27T10:57:23.752Z,17.30
2018-04-27T10:59:51.280Z,17.30
2018-04-27T11:02:18.719Z,17.40
2018-04-27T11:04:46.162Z,17.40
2018-04-27T11:07:13.623Z,17.50
2018-04-27T11:09:41.151Z,17.40
2018-04-27T11:12:08.527Z,17.60
2018-04-27T11:14:35.974Z,17.60
2018-04-27T11:17:03.430Z,17.60
2018-04-27T11:19:31.616Z,17.60
2018-04-27T11:21:59.060Z,17.60
2018-04-27T11:24:27.270Z,17.80
2018-04-27T11:26:54.715Z,17.80
2018-04-27T11:29:22.167Z,17.80
2018-04-27T11:31:49.611Z,17.90
2018-04-27T11:34:17.047Z,17.90
2018-04-27T11:36:45.267Z,18.00
2018-04-27T11:39:12.704Z,18.00
2018-04-27T11:41:40.147Z,18.10
2018-04-27T11:44:08.349Z,18.10
2018-04-27T11:46:35.808Z,18.10
2018-04-27T11:49:03.255Z,18.10
2018-04-27T11:51:31.462Z,18.20
2018-04-27T11:53:58.898Z,18.20
2018-04-27T11:56:26.358Z,18.10
2018-04-27T11:58:53.815Z,18.20
2018-04-27T12:01:21.261Z,18.20
2018-04-27T12:03:48.703Z,18.20
2018-04-27T12:06:16.916Z,18.00
2018-04-27T12:08:44.355Z,18.00
2018-04-27T12:11:11.803Z,18.10
2018-04-27T12:13:39.247Z,18.20
2018-04-27T12:16:26.193Z,18.40
2018-04-27T12:18:54.391Z,18.60
2018-04-27T12:21:21.831Z,18.60
2018-04-27T12:23:49.270Z,18.60
2018-04-27T12:26:16.711Z,18.60
2018-04-27T12:28:44.159Z,18.70
2018-04-27T12:31:12.451Z,18.70
2018-04-27T12:33:39.788Z,18.60
2018-04-27T12:36:08.006Z,18.70
2018-04-27T12:38:35.454Z,18.70
2018-04-27T12:41:02.883Z,19.00
2018-04-27T12:43:31.095Z,18.70
2018-04-27T12:45:58.540Z,18.70
2018-04-27T12:48:25.983Z,18.80
2018-04-27T12:50:53.420Z,19.00
2018-04-27T12:53:21.623Z,19.10
2018-04-27T12:55:49.072Z,19.10
2018-04-27T12:58:16.526Z,19.20
2018-04-27T13:00:43.963Z,19.30
2018-04-27T13:03:12.164Z,19.20
2018-04-27T13:05:39.607Z,19.20
2018-04-27T13:08:07.827Z,19.50
2018-04-27T13:10:35.251Z,19.40
2018-04-27T13:13:02.770Z,19.40
2018-04-27T13:15:30.244Z,19.40
2018-04-27T13:17:58.454Z,19.40
2018-04-27T13:20:25.894Z,19.40
2018-04-27T13:22:53.360Z,19.30
2018-04-27T13:25:20.799Z,19.50
2018-04-27T13:27:49.011Z,19.60
2018-04-27T13:30:16.444Z,19.60
2018-04-27T13:32:43.886Z,19.70
2018-04-27T13:35:12.309Z,19.70
2018-04-27T13:37:39.765Z,19.70
2018-04-27T13:40:07.192Z,19.60
2018-04-27T13:42:34.645Z,19.70
2018-04-27T13:45:02.072Z,19.70
2018-04-27T13:47:29.518Z,19.70
2018-04-27T13:49:56.963Z,19.70
2018-04-27T13:52:24.416Z,19.80
2018-04-27T13:54:51.847Z,20.00
2018-04-27T13:57:19.372Z,19.90
2018-04-27T13:59:46.731Z,20.00
2018-04-27T14:02:14.967Z,20.00
2018-04-27T14:04:42.404Z,20.00
2018-04-27T14:07:11.221Z,20.10
2018-04-27T14:09:38.664Z,20.00
2018-04-27T14:12:06.133Z,20.10
2018-04-27T14:14:33.588Z,20.10
2018-04-27T14:17:01.027Z,20.10
2018-04-27T14:19:28.484Z,20.00
2018-04-27T14:21:55.921Z,20.00
2018-04-27T14:24:23.372Z,20.10
2018-04-27T14:26:50.861Z,20.10
2018-04-27T14:29:19.054Z,20.30
2018-04-27T14:31:46.508Z,20.30
2018-04-27T14:34:13.952Z,20.40
2018-04-27T14:36:41.397Z,20.40
2018-04-27T14:39:08.852Z,20.40
2018-04-27T14:41:36.292Z,20.30
2018-04-27T14:44:03.749Z,20.30
2018-04-27T14:46:31.241Z,20.20
2018-04-27T14:48:58.643Z,20.30
2018-04-27T14:51:26.064Z,20.40
2018-04-27T14:53:53.515Z,20.50
2018-04-27T14:56:20.955Z,20.50
2018-04-27T14:58:48.672Z,20.60
2018-04-27T15:01:16.087Z,20.50
2018-04-27T15:03:43.543Z,20.60
2018-04-27T15:06:10.976Z,20.80
2018-04-27T15:08:38.423Z,20.90
2018-04-27T15:11:05.860Z,20.90
2018-04-27T15:13:34.083Z,21.00
2018-04-27T15:16:01.517Z,21.00
2018-04-27T15:18:28.951Z,21.10
2018-04-27T15:20:57.819Z,21.30
2018-04-27T15:23:26.022Z,21.40
2018-04-27T15:25:54.226Z,21.50
2018-04-27T15:28:21.671Z,21.50
2018-04-27T15:30:49.099Z,21.50
2018-04-27T15:33:17.309Z,21.60
2018-04-27T15:35:44.758Z,21.60
2018-04-27T15:38:12.207Z,21.50
2018-04-27T15:40:39.647Z,21.50
2018-04-27T15:43:07.845Z,21.60
2018-04-27T15:45:35.294Z,21.60
2018-04-27T15:48:02.731Z,21.70
2018-04-27T15:50:30.928Z,21.90
2018-04-27T15:52:58.367Z,21.90
2018-04-27T15:55:26.594Z,22.00
2018-04-27T15:57:54.034Z,22.00
2018-04-27T16:00:21.471Z,21.80
2018-04-27T16:02:48.903Z,21.60
2018-04-27T16:05:17.186Z,21.50
2018-04-27T16:07:45.392Z,21.50
2018-04-27T16:10:12.827Z,21.50
2018-04-27T16:12:41.860Z,21.30
2018-04-27T16:15:09.302Z,21.30
2018-04-27T16:17:36.745Z,21.30
2018-04-27T16:20:04.201Z,21.50
2018-04-27T16:22:32.443Z,21.80
2018-04-27T16:24:59.875Z,21.70
2018-04-27T16:27:27.316Z,21.90
2018-04-27T16:29:54.756Z,22.10
2018-04-27T16:32:22.187Z,22.30
2018-04-27T16:34:50.407Z,22.70
2018-04-27T16:37:17.838Z,22.80
2018-04-27T16:39:45.287Z,22.90
2018-04-27T16:42:13.497Z,24.40
2018-04-27T16:44:40.948Z,24.30
2018-04-27T16:47:08.375Z,25.60
2018-04-27T16:49:35.822Z,26.60
2018-04-27T16:52:04.047Z,27.90
2018-04-27T16:54:31.569Z,27.90
2018-04-27T16:56:59.752Z,28.40
2018-04-27T16:59:27.190Z,28.40
2018-04-27T17:01:55.396Z,28.70
2018-04-27T17:04:22.859Z,28.60
2018-04-27T17:06:50.296Z,28.80
2018-04-27T17:09:17.770Z,28.40
2018-04-27T17:11:45.212Z,27.90
2018-04-27T17:14:12.676Z,27.70
2018-04-27T17:16:41.455Z,25.40
2018-04-27T17:19:08.903Z,25.40
2018-04-27T17:21:37.119Z,23.50
2018-04-27T17:24:04.566Z,23.40
2018-04-27T17:26:32.066Z,22.60
2018-04-27T17:28:59.447Z,22.10
2018-04-27T17:31:27.651Z,21.40
2018-04-27T17:33:55.074Z,21.30
2018-04-27T17:36:23.288Z,20.80
2018-04-27T17:38:52.408Z,20.60
2018-04-27T17:41:19.863Z,20.60
2018-04-27T17:43:47.340Z,20.40
2018-04-27T17:46:14.801Z,20.20
2018-04-27T17:48:42.319Z,20.00
2018-04-27T17:51:09.675Z,19.90
2018-04-27T17:53:37.127Z,19.70
2018-04-27T17:56:04.568Z,19.50
2018-04-27T17:58:32.011Z,19.40
2018-04-27T18:00:59.452Z,19.20
2018-04-27T18:06:20.339Z,19.00
2018-04-27T18:08:47.779Z,18.90
2018-04-27T18:11:15.266Z,18.80
2018-04-27T18:13:42.694Z,18.70
2018-04-27T18:16:10.140Z,18.60
2018-04-27T18:18:37.560Z,18.50
2018-04-27T18:21:05.785Z,18.30
2018-04-27T18:23:33.210Z,18.20
2018-04-27T18:26:00.658Z,18.20
2018-04-27T18:28:28.871Z,18.00
2018-04-27T18:30:56.323Z,17.90
2018-04-27T18:33:23.818Z,17.90
2018-04-27T18:35:51.218Z,17.80
2018-04-27T18:38:18.668Z,17.70
2018-04-27T18:40:46.860Z,17.50
2018-04-27T18:43:14.296Z,17.50
2018-04-27T18:45:42.557Z,17.30
2018-04-27T18:48:10.900Z,17.30
2018-04-27T18:50:38.351Z,17.20
2018-04-27T18:53:05.798Z,17.10
2018-04-27T18:55:33.248Z,17.00
2018-04-27T18:58:00.695Z,16.80
2018-04-27T19:00:28.127Z,16.80
2018-04-27T19:02:56.354Z,16.60
2018-04-27T19:05:23.792Z,16.60
2018-04-27T19:07:51.237Z,16.60
2018-04-27T19:10:18.664Z,16.50
2018-04-27T19:12:46.932Z,16.40
2018-04-27T19:15:14.379Z,16.40
2018-04-27T19:17:41.818Z,16.30
2018-04-27T19:20:09.262Z,16.30
2018-04-27T19:22:36.746Z,16.20
2018-04-27T19:25:04.197Z,16.20
2018-04-27T19:27:31.646Z,16.20
2018-04-27T19:29:59.957Z,16.30
2018-04-27T19:32:27.440Z,16.20
2018-04-27T19:34:54.890Z,16.10
2018-04-27T19:37:23.079Z,16.00
2018-04-27T19:39:51.375Z,16.00
2018-04-27T19:42:18.814Z,16.00
2018-04-27T19:44:46.238Z,16.00
2018-04-27T19:47:14.460Z,15.90
2018-04-27T19:49:41.890Z,15.90
2018-04-27T19:52:09.346Z,15.90
2018-04-27T19:54:37.555Z,15.90
2018-04-27T19:57:05.017Z,15.90
2018-04-27T19:59:32.475Z,15.90
2018-04-27T20:02:00.710Z,15.90
2018-04-27T20:04:28.907Z,16.00
2018-04-27T20:06:56.349Z,15.90
2018-04-27T20:09:23.784Z,15.90
2018-04-27T20:11:51.249Z,15.90
2018-04-27T20:14:31.464Z,15.90
2018-04-27T20:17:01.359Z,15.90
2018-04-27T20:19:29.628Z,15.80
2018-04-27T20:21:57.073Z,15.80
2018-04-27T20:24:24.504Z,15.80
2018-04-27T20:26:53.579Z,15.70
2018-04-27T20:29:21.014Z,15.70
2018-04-27T20:31:48.455Z,15.60
2018-04-27T20:34:16.591Z,15.70
2018-04-27T20:36:44.800Z,15.60
2018-04-27T20:39:12.238Z,15.60
2018-04-27T20:41:39.679Z,15.60
2018-04-27T20:44:07.890Z,15.50
2018-04-27T20:46:35.332Z,15.50
2018-04-27T20:49:02.772Z,15.40
2018-04-27T20:51:30.989Z,15.40
2018-04-27T20:54:00.402Z,15.40
2018-04-27T20:56:46.386Z,15.40
2018-04-27T20:59:13.833Z,15.40
2018-04-27T21:01:41.277Z,15.40
2018-04-27T21:04:08.723Z,15.30
2018-04-27T21:06:36.158Z,15.30
2018-04-27T21:09:06.488Z,15.20
2018-04-27T21:11:37.211Z,15.10
2018-04-27T21:14:05.454Z,15.00
2018-04-27T21:16:32.855Z,15.00
2018-04-27T21:19:01.070Z,14.90
2018-04-27T21:21:28.602Z,14.90
2018-04-27T21:23:56.818Z,14.80
2018-04-27T21:26:27.883Z,14.80
2018-04-27T21:28:56.000Z,14.70
2018-04-27T21:31:23.445Z,14.70
2018-04-27T21:33:59.379Z,14.60
2018-04-27T21:36:31.306Z,14.60
2018-04-27T21:52:34.119Z,14.20
2018-04-27T21:55:01.582Z,14.20
2018-04-27T21:57:42.683Z,14.10
2018-04-27T22:00:25.846Z,14.10
2018-04-27T22:16:21.518Z,13.90
2018-04-27T22:18:48.966Z,13.90
2018-04-27T22:21:16.389Z,13.90
2018-04-27T22:23:43.847Z,13.80
2018-04-27T22:26:19.840Z,13.70
2018-04-27T22:28:48.943Z,13.70
2018-04-27T22:31:16.388Z,13.60
2018-04-27T22:33:46.079Z,13.70
2018-04-27T22:36:31.046Z,13.60
2018-04-27T22:52:21.103Z,13.30
2018-04-27T22:55:00.112Z,13.40
2018-04-27T22:57:35.041Z,13.40
2018-04-27T23:00:17.374Z,13.30
2018-04-27T23:02:44.811Z,13.30
2018-04-27T23:05:18.704Z,13.20
2018-04-27T23:07:48.834Z,13.10
2018-04-27T23:10:16.274Z,12.90
2018-04-27T23:12:59.438Z,12.70
2018-04-27T23:15:26.883Z,12.70
2018-04-27T23:17:54.355Z,12.80
2018-04-27T23:20:22.478Z,12.90
2018-04-27T23:22:54.939Z,12.90
2018-04-27T23:25:23.080Z,13.00
2018-04-27T23:27:50.619Z,12.90
2018-04-27T23:30:18.885Z,12.90
2018-04-27T23:32:46.320Z,13.00
2018-04-27T23:35:13.844Z,12.90
2018-04-27T23:37:41.589Z,12.80
2018-04-27T23:40:31.288Z,12.90
2018-04-27T23:42:59.503Z,12.90
2018-04-27T23:45:26.951Z,12.90
2018-04-27T23:47:55.174Z,13.00
2018-04-27T23:50:22.636Z,12.90
2018-04-27T23:52:50.081Z,12.90
2018-04-27T23:55:18.241Z,12.80
2018-04-27T23:57:45.675Z,12.80
